Time;durP1;ratioP1;P1;durP2;ratioP2;P2;SDS_P1;SDS_P2;PMS_P1;PMS_P2;Temp;Humidity;BMP_temperature;BMP_pressure;BME280_temperature;BME280_humidity;BME280_pressure;Samples;Min_cycle;Max_cycle;Signal;HPM_P1;HPM_P2
2023/10/10 00:00:55;;;;;;;4.15;1.20;;;;;;;14.48;100.00;100451.91;5092947;28;20363;-65
2023/10/10 00:03:23;;;;;;;2.63;1.13;;;;;;;14.41;100.00;100462.81;5078141;28;20048;-66
2023/10/10 00:05:57;;;;;;;3.88;1.30;;;;;;;14.46;100.00;100459.03;5075987;28;20083;-66
2023/10/10 00:08:30;;;;;;;3.70;1.35;;;;;;;14.42;100.00;100447.84;5084926;28;20101;-65
2023/10/10 00:10:56;;;;;;;2.77;1.10;;;;;;;14.33;100.00;100443.97;5079828;28;20075;-66
2023/10/10 00:13:23;;;;;;;3.78;1.23;;;;;;;14.25;100.00;100438.28;5091868;28;20277;-66
2023/10/10 00:16:04;;;;;;;7.05;1.20;;;;;;;14.21;100.00;100434.97;5092206;28;20063;-66
2023/10/10 00:18:32;;;;;;;1.65;0.90;;;;;;;14.22;100.00;100422.69;5091440;28;20056;-66
2023/10/10 00:21:09;;;;;;;2.75;1.00;;;;;;;14.27;100.00;100431.16;5091894;28;20054;-65
2023/10/10 00:23:47;;;;;;;3.47;0.95;;;;;;;14.22;100.00;100431.41;5081018;28;20044;-65
2023/10/10 00:26:14;;;;;;;2.63;1.10;;;;;;;14.15;100.00;100431.88;5080042;28;20079;-66
2023/10/10 00:28:44;;;;;;;1.48;1.00;;;;;;;14.04;100.00;100425.41;5087877;28;20048;-66
2023/10/10 00:31:17;;;;;;;2.40;1.00;;;;;;;14.13;100.00;100423.19;5086722;28;20063;-65
2023/10/10 00:33:46;;;;;;;3.70;1.10;;;;;;;14.14;100.00;100411.72;5083937;28;20047;-66
2023/10/10 00:36:14;;;;;;;2.22;1.00;;;;;;;14.09;100.00;100425.13;5077331;28;20040;-66
2023/10/10 00:38:42;;;;;;;4.43;1.27;;;;;;;14.03;100.00;100430.78;5090417;28;20040;-66
2023/10/10 00:41:11;;;;;;;2.55;1.10;;;;;;;14.07;100.00;100420.91;5091273;28;20055;-66
2023/10/10 00:43:37;;;;;;;2.38;1.10;;;;;;;14.04;100.00;100409.63;5091667;28;20491;-66
2023/10/10 00:46:07;;;;;;;2.40;0.90;;;;;;;14.05;100.00;100407.84;5090497;28;20048;-66
2023/10/10 00:48:38;;;;;;;1.90;0.90;;;;;;;14.04;100.00;100409.63;5092600;28;20409;-66
2023/10/10 00:51:11;;;;;;;2.25;0.93;;;;;;;14.06;100.00;100409.53;5094732;28;20052;-66
2023/10/10 00:53:44;;;;;;;;;;;;;;;14.17;100.00;100408.91;5091541;28;20040;-66
2023/10/10 00:56:13;;;;;;;1.80;0.93;;;;;;;14.03;100.00;100393.91;5090545;28;20014;-66
2023/10/10 00:58:42;;;;;;;1.58;0.80;;;;;;;13.94;100.00;100376.88;5094416;28;20042;-66
2023/10/10 01:01:12;;;;;;;2.80;1.20;;;;;;;14.12;100.00;100400.44;5097420;28;20087;-66
2023/10/10 01:03:42;;;;;;;3.63;1.23;;;;;;;14.04;100.00;100387.69;5086477;28;20048;-66
2023/10/10 01:06:31;;;;;;;4.05;1.23;;;;;;;14.05;100.00;100384.13;5090059;28;20063;-66
2023/10/10 01:09:03;;;;;;;4.63;1.48;;;;;;;13.95;100.00;100382.97;5089987;28;20512;-66
2023/10/10 01:11:30;;;;;;;5.97;1.20;;;;;;;13.88;100.00;100357.94;5091123;28;20480;-66
2023/10/10 01:13:57;;;;;;;3.20;1.15;;;;;;;13.97;100.00;100379.34;5090826;28;20048;-66
2023/10/10 01:16:25;;;;;;;4.50;1.40;;;;;;;13.94;100.00;100374.22;5090359;28;20052;-66
2023/10/10 01:18:57;;;;;;;4.63;1.20;;;;;;;13.99;100.00;100381.88;5090063;28;20082;-66
2023/10/10 01:21:33;;;;;;;3.35;1.30;;;;;;;14.05;100.00;100378.88;5091216;28;20534;-66
2023/10/10 01:24:01;;;;;;;4.93;1.10;;;;;;;14.02;100.00;100379.91;5090911;28;20500;-66
2023/10/10 01:26:35;;;;;;;6.03;1.20;;;;;;;13.99;100.00;100373.97;5090505;28;20139;-66
2023/10/10 01:29:14;;;;;;;6.50;1.42;;;;;;;13.97;100.00;100368.81;5094832;28;20059;-66
2023/10/10 01:31:42;;;;;;;4.00;1.38;;;;;;;13.97;100.00;100365.28;5090487;28;20590;-66
2023/10/10 01:34:09;;;;;;;5.20;1.20;;;;;;;13.82;100.00;100354.72;5088561;28;20698;-66
2023/10/10 01:36:38;;;;;;;3.88;1.35;;;;;;;13.88;100.00;100355.31;5085902;28;20048;-66
2023/10/10 01:39:22;;;;;;;3.03;1.20;;;;;;;13.87;100.00;100351.84;5082964;28;20126;-66
2023/10/10 01:41:48;;;;;;;;;;;;;;;13.96;100.00;100348.66;5078741;28;20047;-66
2023/10/10 01:44:18;;;;;;;3.47;1.20;;;;;;;13.93;100.00;100348.84;5089990;28;19920;-66
2023/10/10 01:46:45;;;;;;;2.72;1.10;;;;;;;13.92;100.00;100349.78;5089639;28;20052;-66
2023/10/10 01:49:22;;;;;;;2.83;1.17;;;;;;;13.85;100.00;100337.94;5088467;28;20140;-66
2023/10/10 01:51:54;;;;;;;4.93;1.55;;;;;;;13.90;100.00;100321.84;5076020;28;20063;-66
2023/10/10 01:54:22;;;;;;;3.95;1.33;;;;;;;13.94;100.00;100326.03;5105005;28;20056;-66
2023/10/10 01:56:51;;;;;;;5.05;1.58;;;;;;;13.97;100.00;100315.28;5089152;28;20405;-66
2023/10/10 01:59:25;;;;;;;4.10;1.40;;;;;;;13.96;100.00;100313.63;5098553;28;20097;-66
2023/10/10 02:01:53;;;;;;;7.78;1.40;;;;;;;13.96;100.00;100295.19;5090788;28;20109;-66
2023/10/10 02:04:35;;;;;;;4.75;1.70;;;;;;;13.86;100.00;100290.47;5090382;28;20398;-66
2023/10/10 02:07:13;;;;;;;3.30;1.25;;;;;;;14.01;100.00;100301.03;5090438;28;20480;-66
2023/10/10 02:09:43;;;;;;;3.55;1.17;;;;;;;13.98;100.00;100291.50;5083151;28;20471;-66
2023/10/10 02:12:16;;;;;;;5.32;1.65;;;;;;;13.99;100.00;100285.31;5089255;28;20056;-66
2023/10/10 02:14:43;;;;;;;4.45;1.65;;;;;;;14.02;100.00;100293.06;5088456;28;20044;-66
2023/10/10 02:17:22;;;;;;;2.97;1.20;;;;;;;14.06;100.00;100285.81;5085841;28;20058;-66
2023/10/10 02:20:33;;;;;;;2.92;1.10;;;;;;;13.97;100.00;100255.63;5088433;28;20300;-66
2023/10/10 02:22:53;;;;;;;4.13;1.42;;;;;;;14.05;100.00;100269.16;5089366;28;20056;-66
2023/10/10 02:28:02;;;;;;;4.30;1.50;;;;;;;14.12;100.00;100277.53;5087954;28;20047;-66
2023/10/10 02:30:37;;;;;;;3.72;1.20;;;;;;;14.09;100.00;100266.34;5081824;28;20201;-66
2023/10/10 02:35:56;;;;;;;3.45;1.08;;;;;;;14.11;100.00;100248.66;5088305;28;20138;-66
2023/10/10 02:38:34;;;;;;;4.45;1.42;;;;;;;14.08;100.00;100241.81;5090117;28;20424;-66
2023/10/10 02:46:38;;;;;;;2.80;1.10;;;;;;;14.09;100.00;100232.13;5088588;28;20101;-66
2023/10/10 02:49:22;;;;;;;3.30;1.20;;;;;;;14.08;100.00;100223.41;5088862;28;20500;-66
2023/10/10 02:51:55;;;;;;;5.18;1.45;;;;;;;14.06;100.00;100212.13;5099735;28;20064;-66
2023/10/10 02:56:58;;;;;;;3.80;1.38;;;;;;;14.18;100.00;100214.00;5080522;28;20059;-66
2023/10/10 02:59:37;;;;;;;2.45;1.17;;;;;;;14.30;100.00;100208.91;5094403;28;20036;-66
2023/10/10 03:02:21;;;;;;;6.22;1.92;;;;;;;14.28;100.00;100197.63;5072338;28;20580;-66
2023/10/10 03:04:55;;;;;;;3.78;1.52;;;;;;;14.43;100.00;100196.69;5081050;28;20562;-66
2023/10/10 03:07:28;;;;;;;3.63;1.45;;;;;;;14.42;100.00;100195.00;5084502;28;20058;-66
2023/10/10 03:12:41;;;;;;;;;;;;;;;14.43;100.00;100191.44;5088877;28;20011;-66
2023/10/10 03:20:34;;;;;;;;;;;;;;;14.43;100.00;100165.94;5088856;28;20129;-66
2023/10/10 03:30:51;;;;;;;;;;;;;;;14.51;100.00;100149.63;5083922;28;19932;-66
2023/10/10 03:33:35;;;;;;;;;;;;;;;14.60;100.00;100146.44;5082009;28;19924;-66
2023/10/10 03:36:31;;;;;;;;;;;;;;;14.61;100.00;100147.31;5088194;28;19998;-66
2023/10/10 05:25:41;;;;;;;;;;;;;;;15.12;100.00;99967.34;5079370;28;19967;-66
2023/10/10 05:28:09;;;;;;;;;;;;;;;15.19;100.00;99969.47;5075079;28;19924;-66
2023/10/10 05:30:42;;;;;;;;;;;;;;;15.18;100.00;99970.41;5073487;28;19924;-67
2023/10/10 05:33:09;;;;;;;;;;;;;;;15.16;100.00;99963.56;5090905;28;20022;-66
2023/10/10 05:35:37;;;;;;;;;;;;;;;15.15;100.00;99959.22;5091298;28;19927;-66
2023/10/10 05:38:04;;;;;;;;;;;;;;;15.16;100.00;99956.50;5090803;28;20369;-66
2023/10/10 05:40:34;;;;;;;;;;;;;;;15.18;100.00;99967.78;5087006;28;19928;-66
2023/10/10 05:43:02;;;;;;;;;;;;;;;15.09;100.00;99964.94;5079348;28;19924;-66
2023/10/10 05:45:29;;;;;;;;;;;;;;;15.11;100.00;99955.97;5074236;28;20226;-66
2023/10/10 05:47:56;;;;;;;;;;;;;;;15.08;100.00;99955.31;5089193;28;19967;-66
2023/10/10 05:50:23;;;;;;;;;;;;;;;14.98;100.00;99947.22;5071105;28;20020;-66
2023/10/10 05:52:49;;;;;;;;;;;;;;;14.98;100.00;99939.31;5073324;28;19982;-66
2023/10/10 05:55:16;;;;;;;;;;;;;;;15.09;100.00;99943.84;5072759;28;19921;-66
2023/10/10 05:57:43;;;;;;;;;;;;;;;14.99;100.00;99947.09;5106024;27;19932;-66
2023/10/10 06:00:10;;;;;;;;;;;;;;;15.05;100.00;99943.22;5075994;28;20614;-66
2023/10/10 06:02:37;;;;;;;;;;;;;;;15.06;100.00;99936.97;5068642;28;19924;-66
2023/10/10 06:05:05;;;;;;;;;;;;;;;15.04;100.00;99930.13;5069180;28;20396;-66
2023/10/10 06:07:33;;;;;;;;;;;;;;;15.00;100.00;99930.34;5074131;28;19919;-66
2023/10/10 06:09:59;;;;;;;;;;;;;;;15.08;100.00;99927.16;5070737;28;19920;-66
2023/10/10 06:12:26;;;;;;;;;;;;;;;14.91;100.00;99924.84;5068932;28;19931;-66
2023/10/10 06:14:54;;;;;;;;;;;;;;;14.98;100.00;99921.69;5084391;28;19928;-66
2023/10/10 06:17:23;;;;;;;;;;;;;;;15.02;100.00;99917.06;5080202;28;19920;-66
2023/10/10 06:19:50;;;;;;;;;;;;;;;14.96;100.00;99930.66;5087316;28;20011;-67
2023/10/10 06:22:17;;;;;;;;;;;;;;;14.97;100.00;99935.81;5089023;28;20043;-67
2023/10/10 06:24:43;;;;;;;;;;;;;;;15.00;100.00;99925.06;5072094;28;20413;-67
2023/10/10 06:27:13;;;;;;;;;;;;;;;15.03;100.00;99917.91;5075303;28;19920;-67
2023/10/10 06:29:40;;;;;;;;;;;;;;;15.10;100.00;99913.88;5076262;28;20384;-66
2023/10/10 06:32:15;;;;;;;;;;;;;;;15.07;100.00;99917.59;5078567;28;19920;-66
2023/10/10 06:34:48;;;;;;;;;;;;;;;15.12;100.00;99910.19;5077928;28;20377;-66
2023/10/10 06:37:16;;;;;;;;;;;;;;;15.13;100.00;99911.03;5071973;28;19920;-66
2023/10/10 06:39:55;;;;;;;;;;;;;;;15.15;100.00;99911.78;5077929;28;19928;-66
2023/10/10 06:42:27;;;;;;;;;;;;;;;15.12;100.00;99909.34;5074879;28;19924;-66
2023/10/10 06:44:54;;;;;;;;;;;;;;;15.09;100.00;99912.22;5082057;28;19928;-67
2023/10/10 06:47:21;;;;;;;;;;;;;;;15.10;100.00;99909.47;5077612;28;19935;-66
2023/10/10 06:49:54;;;;;;;;;;;;;;;15.06;100.00;99907.97;5073901;28;19926;-66
2023/10/10 06:52:23;;;;;;;;;;;;;;;15.05;100.00;99916.84;5082840;28;19985;-67
2023/10/10 06:54:56;;;;;;;;;;;;;;;15.06;100.00;99915.88;5081547;28;19928;-67
2023/10/10 06:57:35;;;;;;;;;;;;;;;15.07;100.00;99901.78;5079267;28;19971;-67
2023/10/10 07:00:21;;;;;;;;;;;;;;;15.17;100.00;99896.69;5067918;28;20298;-66
2023/10/10 07:02:50;;;;;;;;;;;;;;;15.14;100.00;99902.19;5068303;28;19927;-66
2023/10/10 07:05:19;;;;;;;;;;;;;;;15.21;100.00;99895.53;5070050;28;20381;-67
2023/10/10 07:07:46;;;;;;;;;;;;;;;15.14;100.00;99895.13;5081752;28;19927;-66
2023/10/10 07:10:24;;;;;;;;;;;;;;;15.12;100.00;99888.25;5079121;28;19928;-67
2023/10/10 07:12:54;;;;;;;;;;;;;;;15.22;100.00;99881.38;5070187;28;19926;-67
2023/10/10 07:15:21;;;;;;;;;;;;;;;15.28;100.00;99872.19;5094739;28;19934;-68
2023/10/10 07:17:49;;;;;;;;;;;;;;;15.22;100.00;99870.84;5096562;28;20388;-67
2023/10/10 07:22:45;;;;;;;;;;;;;;;15.34;100.00;99862.06;5078114;28;19924;-67
2023/10/10 07:25:25;;;;;;;;;;;;;;;15.11;100.00;99868.97;5086228;28;19970;-67
2023/10/10 07:27:52;;;;;;;;;;;;;;;15.07;100.00;99875.41;5087142;28;20381;-67
2023/10/10 07:30:18;;;;;;;;;;;;;;;15.22;100.00;99872.63;5086285;28;19927;-67
2023/10/10 07:32:48;;;;;;;;;;;;;;;15.20;100.00;99875.38;5078771;28;19920;-67
2023/10/10 07:35:16;;;;;;;;;;;;;;;15.14;100.00;99874.03;5077546;28;19928;-67
2023/10/10 07:37:43;;;;;;;;;;;;;;;15.23;100.00;99855.84;5084634;28;19924;-67
2023/10/10 07:42:49;;;;;;;;;;;;;;;15.25;100.00;99864.53;5074841;28;20015;-67
2023/10/10 07:45:26;;;;;;;;;;;;;;;15.21;100.00;99857.75;5072325;28;20281;-67
2023/10/10 07:50:34;;;;;;;;;;;;;;;15.31;100.00;99858.78;5080631;28;19920;-66
2023/10/10 07:53:12;;;;;;;;;;;;;;;15.41;100.00;99857.19;5089895;28;19924;-66
2023/10/10 07:58:23;;;;;;;;;;;;;;;15.47;100.00;99850.63;5088290;28;19926;-67
2023/10/10 08:01:11;;;;;;;;;;;;;;;15.46;100.00;99839.25;5077502;28;20365;-67
2023/10/10 08:03:43;;;;;;;;;;;;;;;15.41;100.00;99827.34;5077847;28;19921;-67
2023/10/10 08:06:11;;;;;;;;;;;;;;;15.60;100.00;99818.91;5086802;28;19931;-67
2023/10/10 08:08:40;;;;;;;;;;;;;;;15.59;100.00;99804.06;5081464;28;19920;-67
2023/10/10 08:11:12;;;;;;;;;;;;;;;15.48;100.00;99825.94;5076065;28;19920;-67
2023/10/10 08:13:40;;;;;;;;;;;;;;;15.62;100.00;99823.13;5072435;28;19950;-67
2023/10/10 08:16:07;;;;;;;;;;;;;;;15.67;100.00;99815.72;5076160;28;20243;-67
2023/10/10 08:21:13;;;;;;;;;;;;;;;15.59;100.00;99815.44;5078620;28;19940;-67
2023/10/10 08:23:46;;;;;;;;;;;;;;;15.62;100.00;99807.31;5078048;28;19989;-67
2023/10/10 08:26:17;;;;;;;;;;;;;;;15.55;100.00;99804.25;5074270;28;19946;-67
2023/10/10 08:28:45;;;;;;;;;;;;;;;15.64;100.00;99799.28;5073176;28;19924;-67
2023/10/10 08:31:15;;;;;;;;;;;;;;;15.58;100.00;99782.06;5072267;28;20032;-67
2023/10/10 08:33:46;;;;;;;;;;;;;;;15.64;100.00;99788.72;5076429;28;19935;-67
2023/10/10 08:36:35;;;;;;;;;;;;;;;15.60;100.00;99772.28;5074327;28;20043;-66
2023/10/10 08:39:17;;;;;;;;;;;;;;;15.74;100.00;99776.50;5078803;28;20027;-67
2023/10/10 08:41:44;;;;;;;;;;;;;;;15.79;100.00;99763.84;5074906;28;19920;-67
2023/10/10 08:44:14;;;;;;;;;;;;;;;15.93;100.00;99766.28;5072170;28;20001;-67
2023/10/10 08:46:46;;;;;;;;;;;;;;;16.00;100.00;99748.19;5078465;28;19970;-67
2023/10/10 08:49:13;;;;;;;;;;;;;;;16.05;100.00;99732.84;5081191;28;20312;-66
2023/10/10 08:51:41;;;;;;;;;;;;;;;16.06;100.00;99716.06;5077914;28;19935;-66
2023/10/10 08:54:12;;;;;;;;;;;;;;;16.14;100.00;99712.81;5079337;28;19943;-66
2023/10/10 08:56:42;;;;;;;;;;;;;;;16.21;100.00;99698.19;5075748;28;19920;-67
2023/10/10 08:59:10;;;;;;;;;;;;;;;16.19;100.00;99696.63;5076557;28;19925;-67
2023/10/10 09:01:38;;;;;;;;;;;;;;;16.26;100.00;99688.09;5074213;28;19924;-67
2023/10/10 09:04:05;;;;;;;;;;;;;;;16.27;100.00;99687.16;5073860;28;20023;-67
2023/10/10 09:06:43;;;;;;;;;;;;;;;16.10;100.00;99693.72;5076349;28;19924;-67
2023/10/10 09:09:33;;;;;;;;;;;;;;;16.06;100.00;99668.53;5083048;28;19939;-67
2023/10/10 09:11:56;;;;;;;;;;;;;;;16.05;100.00;99677.41;5072542;28;19920;-67
2023/10/10 09:14:36;;;;;;;;;;;;;;;16.15;100.00;99672.25;5080097;28;20016;-67
2023/10/10 09:17:06;;;;;;;;;;;;;;;16.17;100.00;99648.38;5086658;28;20010;-67
2023/10/10 09:19:36;;;;;;;;;;;;;;;16.12;100.00;99628.44;5081101;28;19932;-67
2023/10/10 09:22:12;;;;;;;;;;;;;;;16.21;100.00;99626.88;5074172;28;19924;-67
2023/10/10 09:24:41;;;;;;;;;;;;;;;16.13;100.00;99608.16;5079573;28;19928;-67
2023/10/10 09:27:15;;;;;;;;;;;;;;;16.08;100.00;99597.97;5071005;28;20355;-67
2023/10/10 09:29:42;;;;;;;;;;;;;;;16.05;100.00;99592.91;5080145;28;20376;-67
2023/10/10 09:32:13;;;;;;;;;;;;;;;16.00;100.00;99587.16;5069311;28;19920;-67
2023/10/10 09:34:40;;;;;;;;;;;;;;;16.02;100.00;99584.38;5072171;28;19927;-67
2023/10/10 09:37:13;;;;;;;;;;;;;;;15.93;100.00;99585.94;5080290;28;19963;-67
2023/10/10 09:39:42;;;;;;;;;;;;;;;16.12;100.00;99596.75;5077031;28;19924;-67
2023/10/10 09:47:42;;;;;;;;;;;;;;;16.33;100.00;99590.72;5070933;28;19963;-67
2023/10/10 09:52:58;;;;;;;;;;;;;;;16.30;100.00;99588.31;5069879;28;19920;-67
2023/10/10 10:05:59;;;;;;;;;;;;;;;16.76;100.00;99592.53;5079153;28;19935;-67
2023/10/10 10:08:42;;;;;;;;;;;;;;;17.02;100.00;99593.06;5078673;28;19920;-67
2023/10/10 10:11:16;;;;;;;;;;;;;;;17.10;100.00;99578.38;5076750;28;20018;-67
2023/10/10 10:14:12;;;;;;;;;;;;;;;16.91;100.00;99577.28;5075963;28;20006;-67
2023/10/10 10:16:51;;;;;;;;;;;;;;;16.90;100.00;99565.00;5084888;28;20040;-67
2023/10/10 10:19:19;;;;;;;;;;;;;;;17.26;100.00;99565.53;5085547;28;19970;-67
2023/10/10 10:21:55;;;;;;;;;;;;;;;17.24;100.00;99554.25;5084637;28;19920;-67
2023/10/10 10:24:32;;;;;;;;;;;;;;;17.54;100.00;99545.50;5081925;28;19920;-67
2023/10/10 10:28:00;;;;;;;;;;;;;;;17.52;100.00;99534.22;5077019;28;20384;-67
2023/10/10 10:32:49;;;;;;;;;;;;;;;17.67;100.00;99516.22;5081234;28;19943;-67
2023/10/10 10:35:20;;;;;;;;;;;;;;;17.90;100.00;99498.34;5076918;28;19975;-67
2023/10/10 10:37:59;;;;;;;;;;;;;;;18.01;100.00;99497.41;5086516;28;19955;-67
2023/10/10 10:40:41;;;;;;;;;;;;;;;17.79;100.00;99491.28;5087540;28;19948;-67
2023/10/10 10:43:14;;;;;;;;;;;;;;;18.10;100.00;99491.28;5078190;28;19924;-67
2023/10/10 10:45:45;;;;;;;;;;;;;;;18.25;100.00;99477.63;5072324;28;20027;-67
2023/10/10 10:48:29;;;;;;;;;;;;;;;18.07;100.00;99488.88;5077938;28;19930;-67
2023/10/10 10:51:03;;;;;;;;;;;;;;;18.07;100.00;99470.34;5072828;28;19931;-67
2023/10/10 10:53:38;;;;;;;;;;;;;;;18.11;100.00;99468.25;5079211;28;19924;-67
2023/10/10 11:01:17;;;;;;;;;;;;;;;18.31;100.00;99459.38;5078747;28;20014;-67
2023/10/10 11:03:44;;;;;;;;;;;;;;;18.36;100.00;99449.19;5086144;28;20010;-67
2023/10/10 11:06:14;;;;;;;;;;;;;;;18.60;100.00;99445.28;5082818;28;19993;-67
2023/10/10 11:13:54;;;;;;;;;;;;;;;18.43;100.00;99428.25;5086972;28;19934;-67
2023/10/10 11:16:36;;;;;;;;;;;;;;;18.57;100.00;99421.69;5087815;28;19927;-67
2023/10/10 11:19:12;;;;;;;;;;;;;;;18.92;100.00;99414.97;5086935;28;19924;-67
2023/10/10 11:21:47;;;;;;;;;;;;;;;18.67;100.00;99413.75;5069668;28;19978;-67
2023/10/10 11:24:15;;;;;;;;;;;;;;;18.67;100.00;99408.44;5075408;28;19966;-67
2023/10/10 11:26:44;;;;;;;;;;;;;;;18.83;100.00;99398.13;5069449;28;19924;-66
2023/10/10 11:29:21;;;;;;;;;;;;;;;18.75;100.00;99396.16;5075005;28;19920;-67
2023/10/10 11:31:48;;;;;;;;;;;;;;;18.45;100.00;99383.06;5074130;28;19920;-67
2023/10/10 11:34:28;;;;;;;;;;;;;;;18.59;100.00;99380.84;5081519;28;19970;-67
2023/10/10 11:37:32;;;;;;;;;;;;;;;18.73;100.00;99378.69;5087333;28;19919;-67
2023/10/10 11:43:03;;;;;;;;;;;;;;;18.72;100.00;99371.75;5076100;28;19920;-67
2023/10/10 11:45:31;;;;;;;;;;;;;;;18.63;100.00;99357.53;5077040;28;19970;-67
2023/10/10 11:48:05;;;;;;;;;;;;;;;18.70;100.00;99368.41;5071715;28;20249;-67
2023/10/10 11:50:51;;;;;;;;;;;;;;;18.90;100.00;99358.59;5076033;28;20374;-67
2023/10/10 11:53:23;;;;;;;;;;;;;;;18.91;100.00;99360.25;5070647;28;20006;-67
2023/10/10 11:55:54;;;;;;;;;;;;;;;19.09;100.00;99347.91;5081470;28;19927;-67
2023/10/10 11:58:35;;;;;;;;;;;;;;;19.14;100.00;99335.06;5082161;28;19959;-67
2023/10/10 12:01:06;;;;;;;;;;;;;;;18.95;100.00;99332.47;5081870;28;20267;-67
2023/10/10 12:06:19;;;;;;;;;;;;;;;19.16;100.00;99330.44;5077425;28;20266;-67
2023/10/10 12:08:48;;;;;;;;;;;;;;;19.14;100.00;99318.28;5084105;28;20006;-66
2023/10/10 12:11:21;;;;;;;;;;;;;;;18.80;100.00;99329.41;5080821;28;19945;-66
2023/10/10 12:13:52;;;;;;;;;;;;;;;18.80;100.00;99316.16;5076107;28;19930;-67
2023/10/10 12:16:23;;;;;;;;;;;;;;;18.59;100.00;99303.97;5092165;28;20041;-67
2023/10/10 12:18:52;;;;;;;;;;;;;;;18.64;100.00;99300.88;5082783;28;20309;-67
2023/10/10 12:21:21;;;;;;;;;;;;;;;18.79;100.00;99309.19;5077081;28;20347;-67
2023/10/10 12:23:54;;;;;;;;;;;;;;;18.79;100.00;99294.13;5082001;28;19935;-67
2023/10/10 12:26:26;;;;;;;;;;;;;;;19.03;100.00;99284.00;5075969;28;19966;-67
2023/10/10 12:28:53;;;;;;;;;;;;;;;19.09;100.00;99281.59;5089593;28;20185;-67
2023/10/10 12:31:21;;;;;;;;;;;;;;;18.95;100.00;99274.13;5073760;28;19931;-67
2023/10/10 12:33:49;;;;;;;;;;;;;;;18.88;100.00;99271.22;5084613;28;19932;-68
2023/10/10 12:36:16;;;;;;;;;;;;;;;19.04;100.00;99264.47;5077968;28;19920;-67
2023/10/10 12:38:43;;;;;;;;;;;;;;;19.00;100.00;99265.72;5078988;28;20289;-67
2023/10/10 12:41:12;;;;;;;;;;;;;;;19.16;100.00;99264.09;5085260;28;19924;-67
2023/10/10 12:43:38;;;;;;;;;;;;;;;19.21;100.00;99268.97;5075813;28;19921;-67
2023/10/10 12:46:07;;;;;;;;;;;;;;;19.45;100.00;99259.59;5075701;28;19920;-67
2023/10/10 12:48:40;;;;;;;;;;;;;;;19.49;100.00;99251.16;5081661;28;19924;-67
2023/10/10 12:51:09;;;;;;;;;;;;;;;19.59;100.00;99243.13;5073559;28;20020;-67
2023/10/10 12:53:39;;;;;;;;;;;;;;;19.63;100.00;99230.38;5073389;28;20369;-67
2023/10/10 12:56:11;;;;;;;;;;;;;;;19.57;100.00;99237.16;5073746;28;19989;-67
2023/10/10 12:58:43;;;;;;;;;;;;;;;19.61;100.00;99227.06;5083356;28;19924;-67
2023/10/10 13:01:15;;;;;;;;;;;;;;;19.69;100.00;99227.97;5073882;28;19924;-67
2023/10/10 13:03:47;;;;;;;;;;;;;;;19.76;100.00;99233.53;5083376;28;19993;-67
2023/10/10 13:06:15;;;;;;;;;;;;;;;19.54;100.00;99221.50;5080659;28;20428;-67
2023/10/10 13:08:49;;;;;;;;;;;;;;;19.57;100.00;99220.38;5083556;28;20297;-67
2023/10/10 13:11:17;;;;;;;;;;;;;;;19.30;100.00;99212.34;5082004;28;19977;-67
2023/10/10 13:13:56;;;;;;;;;;;;;;;19.29;100.00;99202.69;5078118;28;19924;-67
2023/10/10 13:19:12;;;;;;;;;;;;;;;19.33;100.00;99209.38;5077215;28;19931;-67
2023/10/10 13:21:39;;;;;;;;;;;;;;;19.12;100.00;99198.22;5071835;28;20403;-67
2023/10/10 13:24:13;;;;;;;;;;;;;;;19.08;100.00;99195.03;5081440;28;19920;-67
2023/10/10 13:26:41;;;;;;;;;;;;;;;19.12;100.00;99190.25;5078680;28;19999;-67
2023/10/10 13:29:08;;;;;;;;;;;;;;;19.14;100.00;99191.78;5073705;28;20370;-67
2023/10/10 13:31:37;;;;;;;;;;;;;;;19.23;100.00;99181.25;5085938;28;19924;-67
2023/10/10 13:34:04;;;;;;;;;;;;;;;19.30;100.00;99185.81;5085813;28;19941;-67
2023/10/10 13:36:32;;;;;;;;;;;;;;;18.92;100.00;99195.69;5087806;28;20361;-67
2023/10/10 13:38:59;;;;;;;;;;;;;;;19.20;100.00;99192.19;5076809;28;20365;-67
2023/10/10 13:41:29;;;;;;;;;;;;;;;19.22;100.00;99193.69;5078130;28;20427;-67
2023/10/10 13:44:03;;;;;;;;;;;;;;;19.43;100.00;99188.06;5083080;28;19980;-67
2023/10/10 13:46:33;;;;;;;;;;;;;;;19.55;100.00;99175.41;5079639;28;19920;-67
2023/10/10 13:48:59;;;;;;;;;;;;;;;19.42;100.00;99188.22;5078772;28;19947;-67
2023/10/10 13:51:29;;;;;;;;;;;;;;;19.80;100.00;99167.66;5082109;28;19924;-67
2023/10/10 13:53:56;;;;;;;;;;;;;;;19.95;100.00;99174.06;5085694;28;19923;-67
2023/10/10 13:56:23;;;;;;;;;;;;;;;19.80;100.00;99175.63;5087485;28;19920;-67
2023/10/10 13:58:52;;;;;;;;;;;;;;;19.78;100.00;99172.28;5088334;28;19920;-67
2023/10/10 14:01:29;;;;;;;;;;;;;;;19.54;100.00;99179.03;5085260;28;20293;-67
2023/10/10 14:04:01;;;;;;;;;;;;;;;19.60;100.00;99159.00;5074763;28;20328;-67
2023/10/10 14:06:45;;;;;;;;;;;;;;;19.66;100.00;99175.16;5081833;28;19920;-67
2023/10/10 14:09:21;;;;;;;;;;;;;;;19.62;100.00;99136.66;5086231;28;19924;-67
2023/10/10 14:11:49;;;;;;;;;;;;;;;19.54;100.00;99157.81;5082332;28;20429;-66
2023/10/10 14:14:16;;;;;;;;;;;;;;;19.75;100.00;99152.19;5077454;28;20011;-68
2023/10/10 14:16:43;;;;;;;;;;;;;;;19.71;100.00;99150.81;5085139;28;19923;-67
2023/10/10 14:19:09;;;;;;;;;;;;;;;19.35;100.00;99158.81;5080755;28;19924;-67
2023/10/10 14:21:38;;;;;;;;;;;;;;;19.41;100.00;99163.50;5085749;28;19920;-67
2023/10/10 14:24:07;;;;;;;;;;;;;;;19.27;100.00;99133.03;5077481;28;20361;-67
2023/10/10 14:26:37;;;;;;;;;;;;;;;19.36;100.00;99123.34;5081985;28;19924;-67
2023/10/10 14:29:07;;;;;;;;;;;;;;;19.33;100.00;99120.97;5080180;28;20427;-67
2023/10/10 14:31:35;;;;;;;;;;;;;;;19.25;100.00;99126.22;5080447;28;20384;-67
2023/10/10 14:34:04;;;;;;;;;;;;;;;19.37;100.00;99114.41;5079709;28;20297;-67
2023/10/10 14:36:31;;;;;;;;;;;;;;;19.52;100.00;99112.81;5078145;28;20324;-67
2023/10/10 14:38:58;;;;;;;;;;;;;;;19.37;100.00;99102.91;5072478;28;20436;-67
2023/10/10 14:41:30;;;;;;;;;;;;;;;19.52;100.00;99102.22;5076923;28;19924;-67
2023/10/10 14:44:00;;;;;;;;;;;;;;;19.45;100.00;99105.66;5073122;28;19978;-67
2023/10/10 14:46:31;;;;;;;;;;;;;;;19.40;100.00;99102.63;5078869;28;20346;-67
2023/10/10 14:49:05;;;;;;;;;;;;;;;19.48;100.00;99111.47;5080572;28;19951;-67
2023/10/10 14:51:38;;;;;;;;;;;;;;;19.60;100.00;99109.41;5071277;28;19924;-67
2023/10/10 14:54:11;;;;;;;;;;;;;;;19.40;100.00;99103.44;5083321;28;19931;-67
2023/10/10 14:56:45;;;;;;;;;;;;;;;19.48;100.00;99108.00;5077118;28;19919;-67
2023/10/10 14:59:18;;;;;;;;;;;;;;;19.40;100.00;99106.09;5083898;28;19920;-67
2023/10/10 15:01:48;;;;;;;;;;;;;;;19.30;100.00;99082.31;5080874;28;19974;-67
2023/10/10 15:04:19;;;;;;;;;;;;;;;19.26;100.00;99090.72;5079247;28;19930;-68
2023/10/10 15:06:46;;;;;;;;;;;;;;;19.29;100.00;99087.78;5079295;28;19920;-68
2023/10/10 15:09:19;;;;;;;;;;;;;;;19.25;100.00;99084.59;5080216;28;20258;-68
2023/10/10 15:11:47;;;;;;;;;;;;;;;19.14;100.00;99093.63;5082777;28;20376;-68
2023/10/10 15:14:14;;;;;;;;;;;;;;;19.23;100.00;99096.34;5078437;28;19928;-67
2023/10/10 15:16:41;;;;;;;;;;;;;;;19.29;100.00;99088.59;5081019;28;19924;-67
2023/10/10 15:19:08;;;;;;;;;;;;;;;19.13;100.00;99089.31;5083457;28;19966;-67
2023/10/10 15:21:35;;;;;;;;;;;;;;;19.04;100.00;99070.84;5071506;28;19920;-67
2023/10/10 15:24:11;;;;;;;;;;;;;;;19.16;100.00;99070.44;5078427;28;19943;-67
2023/10/10 15:26:38;;;;;;;;;;;;;;;19.33;100.00;99055.47;5076490;28;19924;-67
2023/10/10 15:29:05;;;;;;;;;;;;;;;19.33;100.00;99057.28;5071406;28;20016;-67
2023/10/10 15:31:31;;;;;;;;;;;;;;;19.08;100.00;99059.75;5080156;28;19920;-67
2023/10/10 15:33:58;;;;;;;;;;;;;;;19.06;100.00;99071.50;5081762;28;19931;-67
2023/10/10 15:36:30;;;;;;;;;;;;;;;19.16;100.00;99048.38;5074621;28;19924;-67
2023/10/10 15:39:08;;;;;;;;;;;;;;;19.13;100.00;99048.69;5084660;28;19953;-67
2023/10/10 15:41:36;;;;;;;;;;;;;;;18.97;100.00;99036.13;5079882;28;19924;-67
2023/10/10 15:44:03;;;;;;;;;;;;;;;19.23;100.00;99056.53;5074195;28;20597;-67
2023/10/10 15:46:34;;;;;;;;;;;;;;;19.14;100.00;99056.50;5076839;28;19930;-67
2023/10/10 15:49:02;;;;;;;;;;;;;;;18.83;100.00;99057.88;5077529;28;19943;-67